createdAt,value
2023-05-08T00:00:20.561Z,8.92
2023-05-08T00:03:22.574Z,8.90
2023-05-08T00:06:24.348Z,8.84
2023-05-08T00:09:26.465Z,8.84
2023-05-08T00:12:29.605Z,8.81
2023-05-08T00:15:31.348Z,8.83
2023-05-08T00:18:32.972Z,8.81
2023-05-08T00:21:34.726Z,8.82
2023-05-08T00:24:36.731Z,8.82
2023-05-08T00:27:39.874Z,8.82
2023-05-08T00:30:42.759Z,8.79
2023-05-08T00:33:44.526Z,8.77
2023-05-08T00:36:46.423Z,8.78
2023-05-08T00:39:48.189Z,8.77
2023-05-08T00:42:51.496Z,8.75
2023-05-08T00:45:54.873Z,8.74
2023-05-08T00:48:56.988Z,8.71
2023-05-08T00:51:58.628Z,8.69
2023-05-08T00:55:00.900Z,8.67
2023-05-08T00:58:04.414Z,8.65
2023-05-08T01:01:06.387Z,8.65
2023-05-08T01:04:08.284Z,8.64
2023-05-08T01:07:10.717Z,8.61
2023-05-08T01:10:12.505Z,8.61
2023-05-08T01:13:21.084Z,8.64
2023-05-08T01:16:28.600Z,8.60
2023-05-08T01:19:40.617Z,8.55
2023-05-08T01:23:01.638Z,8.55
2023-05-08T01:26:22.171Z,8.53
2023-05-08T01:29:37.984Z,8.53
2023-05-08T01:32:41.696Z,8.51
2023-05-08T01:35:45.835Z,8.51
2023-05-08T01:38:52.885Z,8.50
2023-05-08T01:41:57.730Z,8.51
2023-05-08T01:45:00.754Z,8.48
2023-05-08T01:48:09.787Z,8.50
2023-05-08T01:51:14.386Z,8.46
2023-05-08T01:54:20.081Z,8.44
2023-05-08T01:57:27.000Z,8.42
2023-05-08T02:00:28.749Z,8.42
2023-05-08T02:03:34.037Z,8.44
2023-05-08T02:06:37.404Z,8.43
2023-05-08T02:09:41.040Z,8.43
2023-05-08T02:12:43.389Z,8.39
2023-05-08T02:15:45.716Z,8.34
2023-05-08T02:18:51.187Z,8.32
2023-05-08T02:21:53.234Z,8.35
2023-05-08T02:24:58.262Z,8.29
2023-05-08T02:27:59.839Z,8.29
2023-05-08T02:31:01.840Z,8.31
2023-05-08T02:34:05.313Z,8.25
2023-05-08T02:37:07.412Z,8.26
2023-05-08T02:40:11.564Z,8.27
2023-05-08T02:43:13.503Z,8.25
2023-05-08T02:46:17.106Z,8.22
2023-05-08T02:49:26.724Z,8.19
2023-05-08T02:52:29.680Z,8.14
2023-05-08T02:55:36.379Z,8.07
2023-05-08T02:58:43.696Z,8.01
2023-05-08T03:01:50.966Z,7.95
2023-05-08T03:04:56.406Z,7.94
2023-05-08T03:08:02.936Z,7.98
2023-05-08T03:11:08.537Z,8.01
2023-05-08T03:14:11.001Z,8.03
2023-05-08T03:17:15.371Z,8.01
2023-05-08T03:20:19.725Z,8.00
2023-05-08T03:23:23.525Z,7.97
2023-05-08T03:26:25.685Z,7.93
2023-05-08T03:29:28.978Z,7.84
2023-05-08T03:32:32.971Z,7.82
2023-05-08T03:35:39.948Z,7.85
2023-05-08T03:38:43.233Z,7.87
2023-05-08T03:41:45.908Z,7.88
2023-05-08T03:44:50.085Z,7.82
2023-05-08T03:47:53.959Z,7.79
2023-05-08T03:50:58.313Z,7.76
2023-05-08T03:54:00.317Z,7.73
2023-05-08T03:57:02.026Z,7.75
2023-05-08T04:00:06.436Z,7.77
2023-05-08T04:03:21.774Z,7.79
2023-05-08T04:06:30.717Z,7.80
2023-05-08T04:09:37.713Z,7.84
2023-05-08T04:12:41.670Z,7.81
2023-05-08T04:15:45.008Z,7.78
2023-05-08T04:18:50.620Z,7.80
2023-05-08T04:21:55.839Z,7.83
2023-05-08T04:24:58.851Z,7.80
2023-05-08T04:28:02.737Z,7.77
2023-05-08T04:31:05.562Z,7.75
2023-05-08T04:34:09.368Z,7.87
2023-05-08T04:37:24.091Z,7.96
2023-05-08T04:40:25.936Z,8.02
2023-05-08T04:43:28.739Z,8.03
2023-05-08T04:46:30.558Z,8.09
2023-05-08T04:49:32.617Z,8.09
2023-05-08T04:52:36.042Z,8.10
2023-05-08T04:55:38.174Z,8.05
2023-05-08T04:58:40.221Z,8.04
2023-05-08T05:01:42.411Z,8.05
2023-05-08T05:04:44.232Z,8.11
2023-05-08T05:07:47.281Z,8.08
2023-05-08T05:10:49.351Z,8.13
2023-05-08T05:13:51.132Z,8.10
2023-05-08T05:16:52.772Z,8.16
2023-05-08T05:19:54.693Z,8.11
2023-05-08T05:22:58.647Z,8.13
2023-05-08T05:26:00.539Z,8.15
2023-05-08T05:29:03.384Z,8.21
2023-05-08T05:32:07.291Z,8.23
2023-05-08T05:35:09.941Z,8.25
2023-05-08T05:38:13.211Z,8.25
2023-05-08T05:41:15.528Z,8.21
2023-05-08T05:44:18.414Z,8.26
2023-05-08T05:47:20.338Z,8.29
2023-05-08T05:50:22.583Z,8.25
2023-05-08T05:53:26.806Z,8.28
2023-05-08T05:56:28.878Z,8.29
2023-05-08T05:59:30.802Z,8.32
2023-05-08T06:02:33.980Z,8.43
2023-05-08T06:05:36.335Z,8.62
2023-05-08T06:08:39.678Z,8.72
2023-05-08T06:11:42.149Z,8.77
2023-05-08T06:14:43.757Z,8.77
2023-05-08T06:17:45.511Z,8.76
2023-05-08T06:20:47.708Z,8.78
2023-05-08T06:23:50.999Z,8.87
2023-05-08T06:26:52.632Z,9.08
2023-05-08T06:29:54.265Z,9.14
2023-05-08T06:32:56.913Z,9.26
2023-05-08T06:35:58.705Z,9.48
2023-05-08T06:39:01.785Z,9.69
2023-05-08T06:42:08.353Z,9.86
2023-05-08T06:45:13.700Z,10.01
2023-05-08T06:48:15.478Z,10.17
2023-05-08T06:51:17.260Z,10.29
2023-05-08T06:54:21.036Z,10.37
2023-05-08T06:57:24.331Z,10.42
2023-05-08T07:00:26.184Z,10.55
2023-05-08T07:03:27.927Z,10.70
2023-05-08T07:06:30.990Z,10.85
2023-05-08T07:09:34.095Z,10.92
2023-05-08T07:12:35.687Z,11.06
2023-05-08T07:15:38.966Z,11.16
2023-05-08T07:18:40.709Z,11.31
2023-05-08T07:21:42.492Z,11.49
2023-05-08T07:24:45.546Z,11.48
2023-05-08T07:27:47.452Z,11.45
2023-05-08T07:30:49.108Z,11.64
2023-05-08T07:33:50.898Z,11.82
2023-05-08T07:36:52.608Z,11.90
2023-05-08T07:39:55.638Z,12.03
2023-05-08T07:42:57.606Z,12.15
2023-05-08T07:45:59.411Z,12.15
2023-05-08T07:49:01.076Z,12.30
2023-05-08T07:52:02.893Z,12.34
2023-05-08T07:55:06.688Z,12.40
2023-05-08T07:58:08.394Z,12.45
2023-05-08T08:01:10.142Z,12.55
2023-05-08T08:04:13.952Z,12.72
2023-05-08T08:07:16.842Z,12.86
2023-05-08T08:10:20.196Z,12.88
2023-05-08T08:13:22.066Z,12.93
2023-05-08T08:16:24.748Z,13.09
2023-05-08T08:19:26.574Z,13.15
2023-05-08T08:22:28.233Z,13.30
2023-05-08T08:25:31.324Z,13.39
2023-05-08T08:28:33.143Z,13.46
2023-05-08T08:31:35.155Z,13.48
2023-05-08T08:34:37.375Z,13.65
2023-05-08T08:37:39.077Z,13.83
2023-05-08T08:40:43.205Z,13.95
2023-05-08T08:43:44.988Z,14.09
2023-05-08T08:46:50.516Z,14.28
2023-05-08T08:49:52.907Z,14.34
2023-05-08T08:52:56.931Z,14.40
2023-05-08T08:56:00.951Z,14.41
2023-05-08T08:59:03.201Z,14.57
2023-05-08T09:02:09.308Z,14.68
2023-05-08T09:05:11.640Z,14.75
2023-05-08T09:08:13.393Z,14.88
2023-05-08T09:11:17.042Z,14.89
2023-05-08T09:14:19.598Z,14.94
2023-05-08T09:17:21.766Z,14.99
2023-05-08T09:20:23.842Z,15.05
2023-05-08T09:23:26.634Z,15.13
2023-05-08T09:26:32.414Z,15.35
2023-05-08T09:29:36.816Z,15.55
2023-05-08T09:32:40.242Z,15.58
2023-05-08T09:35:42.057Z,15.56
2023-05-08T09:38:44.389Z,15.60
2023-05-08T09:41:58.741Z,15.71
2023-05-08T09:45:06.733Z,15.94
2023-05-08T09:48:09.524Z,16.05
2023-05-08T09:51:11.652Z,16.09
2023-05-08T09:54:18.657Z,16.23
2023-05-08T09:57:23.121Z,16.33
2023-05-08T10:00:25.553Z,16.45
2023-05-08T10:03:46.695Z,16.53
2023-05-08T10:06:57.356Z,16.61
2023-05-08T10:10:00.017Z,16.80
2023-05-08T10:13:03.803Z,16.90
2023-05-08T10:16:06.158Z,17.08
2023-05-08T10:19:12.115Z,17.20
2023-05-08T10:22:17.544Z,17.31
2023-05-08T10:25:21.126Z,17.28
2023-05-08T10:28:30.159Z,17.43
2023-05-08T10:31:34.958Z,17.67
2023-05-08T10:34:40.010Z,17.62
2023-05-08T10:37:45.632Z,17.57
2023-05-08T10:40:48.306Z,17.75
2023-05-08T10:43:51.560Z,17.93
2023-05-08T10:46:55.143Z,18.07
2023-05-08T10:50:00.636Z,18.13
2023-05-08T10:53:06.433Z,18.23
2023-05-08T10:56:08.272Z,18.35
2023-05-08T10:59:17.970Z,18.36
2023-05-08T11:02:26.041Z,18.52
2023-05-08T11:05:28.778Z,18.73
2023-05-08T11:08:31.573Z,18.67
2023-05-08T11:11:38.547Z,18.70
2023-05-08T11:14:42.845Z,18.82
2023-05-08T11:17:53.795Z,19.05
2023-05-08T11:20:56.452Z,18.98
2023-05-08T11:23:58.288Z,18.84
2023-05-08T11:27:00.614Z,19.07
2023-05-08T11:30:17.465Z,19.21
2023-05-08T11:33:21.111Z,19.14
2023-05-08T11:36:25.719Z,19.15
2023-05-08T11:39:27.699Z,19.18
2023-05-08T11:42:35.816Z,19.24
2023-05-08T11:45:38.937Z,18.91
2023-05-08T11:48:42.768Z,19.34
2023-05-08T11:51:45.586Z,19.58
2023-05-08T11:54:47.832Z,19.88
2023-05-08T11:57:55.020Z,19.88
2023-05-08T12:00:57.772Z,19.61
2023-05-08T12:04:05.393Z,19.89
2023-05-08T12:07:07.205Z,19.88
2023-05-08T12:10:09.633Z,19.95
2023-05-08T12:13:18.555Z,20.09
2023-05-08T12:16:21.307Z,20.05
2023-05-08T12:19:24.387Z,20.12
2023-05-08T12:22:26.048Z,20.12
2023-05-08T12:25:27.616Z,20.11
2023-05-08T12:28:29.285Z,20.10
2023-05-08T12:31:31.118Z,20.16
2023-05-08T12:34:35.293Z,20.43
2023-05-08T12:37:37.252Z,20.67
2023-05-08T12:40:40.986Z,20.79
2023-05-08T12:43:46.700Z,20.42
2023-05-08T12:46:50.170Z,20.38
2023-05-08T12:49:57.624Z,20.74
2023-05-08T12:53:02.379Z,20.88
2023-05-08T12:56:04.814Z,21.05
2023-05-08T12:59:06.632Z,20.88
2023-05-08T13:02:16.256Z,20.69
2023-05-08T13:05:20.752Z,20.52
2023-05-08T13:08:29.200Z,20.62
2023-05-08T13:11:31.519Z,21.04
2023-05-08T13:14:33.076Z,21.31
2023-05-08T13:17:35.575Z,21.38
2023-05-08T13:20:39.036Z,21.60
2023-05-08T13:23:43.294Z,21.57
2023-05-08T13:26:46.392Z,21.21
2023-05-08T13:29:47.953Z,21.44
2023-05-08T13:32:49.732Z,21.80
2023-05-08T13:35:53.796Z,22.03
2023-05-08T13:38:57.293Z,22.20
2023-05-08T13:41:59.654Z,22.33
2023-05-08T13:45:01.754Z,22.26
2023-05-08T13:48:03.684Z,21.48
2023-05-08T13:51:07.204Z,21.52
2023-05-08T13:54:09.000Z,21.84
2023-05-08T13:57:11.046Z,22.05
2023-05-08T14:00:13.226Z,22.29
2023-05-08T14:03:14.820Z,22.44
2023-05-08T14:06:18.230Z,22.54
2023-05-08T14:09:20.478Z,22.40
2023-05-08T14:12:22.671Z,22.53
2023-05-08T14:15:29.255Z,22.74
2023-05-08T14:18:38.048Z,22.78
2023-05-08T14:21:41.051Z,22.73
2023-05-08T14:24:42.877Z,22.71
2023-05-08T14:27:44.730Z,22.68
2023-05-08T14:30:46.311Z,22.74
2023-05-08T14:33:48.307Z,22.57
2023-05-08T14:36:51.709Z,22.41
2023-05-08T14:39:54.325Z,22.30
2023-05-08T14:42:56.292Z,22.07
2023-05-08T14:45:58.217Z,21.87
2023-05-08T14:48:59.917Z,21.94
2023-05-08T14:52:03.291Z,22.02
2023-05-08T14:55:05.474Z,22.23
2023-05-08T14:58:07.483Z,22.02
2023-05-08T15:01:09.144Z,22.11
2023-05-08T15:04:10.973Z,22.09
2023-05-08T15:07:14.357Z,22.07
2023-05-08T15:10:16.024Z,22.17
2023-05-08T15:13:17.775Z,22.11
2023-05-08T15:16:19.467Z,22.14
2023-05-08T15:19:21.316Z,22.13
2023-05-08T15:22:28.264Z,22.00
2023-05-08T15:25:29.938Z,21.87
2023-05-08T15:28:32.112Z,21.39
2023-05-08T15:31:33.789Z,20.82
2023-05-08T15:34:35.493Z,20.34
2023-05-08T15:37:39.714Z,20.05
2023-05-08T15:40:41.464Z,19.75
2023-05-08T15:43:45.601Z,19.62
2023-05-08T15:46:47.321Z,19.49
2023-05-08T15:49:49.226Z,19.34
2023-05-08T15:52:52.633Z,19.25
2023-05-08T15:55:55.389Z,19.21
2023-05-08T15:58:56.998Z,19.14
2023-05-08T16:01:58.821Z,19.11
2023-05-08T16:05:00.450Z,19.04
2023-05-08T16:08:03.550Z,18.95
2023-05-08T16:11:05.225Z,18.86
2023-05-08T16:14:07.094Z,18.83
2023-05-08T16:17:08.874Z,18.78
2023-05-08T16:20:11.050Z,18.74
2023-05-08T16:23:14.941Z,18.69
2023-05-08T16:26:16.746Z,18.66
2023-05-08T16:29:18.444Z,18.81
2023-05-08T16:32:20.306Z,18.97
2023-05-08T16:35:23.056Z,19.04
2023-05-08T16:38:26.295Z,19.14
2023-05-08T16:41:28.066Z,19.23
2023-05-08T16:44:29.584Z,19.17
2023-05-08T16:47:31.404Z,19.06
2023-05-08T16:50:33.147Z,18.96
2023-05-08T16:53:37.781Z,18.87
2023-05-08T16:56:39.951Z,18.71
2023-05-08T16:59:42.388Z,18.54
2023-05-08T17:02:44.180Z,18.44
2023-05-08T17:05:45.977Z,18.32
2023-05-08T17:08:49.236Z,18.26
2023-05-08T17:11:50.779Z,18.19
2023-05-08T17:14:52.596Z,18.03
2023-05-08T17:17:55.952Z,17.93
2023-05-08T17:20:58.036Z,17.82
2023-05-08T17:24:01.431Z,17.70
2023-05-08T17:27:03.593Z,17.56
2023-05-08T17:30:05.989Z,17.50
2023-05-08T17:33:07.794Z,17.47
2023-05-08T17:36:09.801Z,17.38
2023-05-08T17:39:12.864Z,17.29
2023-05-08T17:42:14.796Z,17.23
2023-05-08T17:45:16.689Z,17.15
2023-05-08T17:48:18.274Z,17.09
2023-05-08T17:51:20.428Z,17.00
2023-05-08T17:54:23.462Z,16.92
2023-05-08T17:57:24.907Z,16.87
2023-05-08T18:00:26.469Z,16.82
2023-05-08T18:03:27.995Z,16.74
2023-05-08T18:06:29.884Z,16.66
2023-05-08T18:09:32.814Z,16.60
2023-05-08T18:12:34.496Z,16.51
2023-05-08T18:15:39.037Z,16.43
2023-05-08T18:18:40.625Z,16.38
2023-05-08T18:21:42.272Z,16.28
2023-05-08T18:24:45.635Z,16.19
2023-05-08T18:27:49.753Z,16.12
2023-05-08T18:30:51.559Z,16.04
2023-05-08T18:33:53.204Z,15.98
2023-05-08T18:36:56.148Z,15.96
2023-05-08T18:40:00.968Z,15.94
2023-05-08T18:43:03.200Z,15.86
2023-05-08T18:46:08.832Z,15.78
2023-05-08T18:49:10.583Z,15.76
2023-05-08T18:52:12.274Z,15.69
2023-05-08T18:55:15.387Z,15.63
2023-05-08T18:58:17.860Z,15.58
2023-05-08T19:01:21.205Z,15.51
2023-05-08T19:04:23.394Z,15.44
2023-05-08T19:07:24.955Z,15.42
2023-05-08T19:10:28.058Z,15.35
2023-05-08T19:13:29.887Z,15.27
2023-05-08T19:16:31.676Z,15.19
2023-05-08T19:19:33.492Z,15.16
2023-05-08T19:22:36.112Z,15.08
2023-05-08T19:25:39.659Z,15.06
2023-05-08T19:28:41.178Z,15.03
2023-05-08T19:31:42.829Z,14.96
2023-05-08T19:34:44.635Z,14.93
2023-05-08T19:37:46.598Z,14.92
2023-05-08T19:40:57.298Z,14.86
2023-05-08T19:43:59.505Z,14.78
2023-05-08T19:47:03.745Z,14.74
2023-05-08T19:50:07.329Z,14.66
2023-05-08T19:53:09.503Z,14.61
2023-05-08T19:56:12.661Z,14.51
2023-05-08T19:59:14.421Z,14.44
2023-05-08T20:02:16.211Z,14.43
2023-05-08T20:05:22.582Z,14.38
2023-05-08T20:08:24.828Z,14.33
2023-05-08T20:11:27.919Z,14.29
2023-05-08T20:14:29.703Z,14.25
2023-05-08T20:17:31.379Z,14.16
2023-05-08T20:20:34.716Z,14.16
2023-05-08T20:23:37.694Z,14.09
2023-05-08T20:26:41.457Z,14.03
2023-05-08T20:29:43.005Z,14.04
2023-05-08T20:32:44.785Z,14.02
2023-05-08T20:35:46.759Z,13.98
2023-05-08T20:38:48.866Z,13.96
2023-05-08T20:41:51.739Z,13.90
2023-05-08T20:44:53.826Z,13.86
2023-05-08T20:47:56.023Z,13.81
2023-05-08T20:50:57.586Z,13.76
2023-05-08T20:53:59.349Z,13.73
2023-05-08T20:57:02.545Z,13.71
2023-05-08T21:00:05.194Z,13.68
2023-05-08T21:03:06.864Z,13.63
2023-05-08T21:06:08.612Z,13.60
2023-05-08T21:09:10.302Z,13.58
2023-05-08T21:12:13.490Z,13.51
2023-05-08T21:15:15.292Z,13.48
2023-05-08T21:18:16.943Z,13.42
2023-05-08T21:21:20.864Z,13.41
2023-05-08T21:24:23.834Z,13.41
2023-05-08T21:27:27.158Z,13.38
2023-05-08T21:30:28.986Z,13.31
2023-05-08T21:33:30.521Z,13.23
2023-05-08T21:36:35.334Z,13.17
2023-05-08T21:39:37.924Z,13.14
2023-05-08T21:42:41.207Z,13.15
2023-05-08T21:45:43.094Z,13.15
2023-05-08T21:48:45.061Z,13.08
2023-05-08T21:51:47.159Z,13.06
2023-05-08T21:54:52.423Z,13.02
2023-05-08T21:57:56.032Z,12.98
2023-05-08T22:00:58.688Z,12.93
2023-05-08T22:04:00.907Z,12.84
2023-05-08T22:07:03.013Z,12.80
2023-05-08T22:10:05.387Z,12.82
2023-05-08T22:13:13.425Z,12.76
2023-05-08T22:16:15.301Z,12.76
2023-05-08T22:19:17.734Z,12.77
2023-05-08T22:22:19.296Z,12.74
2023-05-08T22:25:22.003Z,12.76
2023-05-08T22:28:25.123Z,12.73
2023-05-08T22:31:26.756Z,12.65
2023-05-08T22:34:28.366Z,12.60
2023-05-08T22:37:30.518Z,12.56
2023-05-08T22:40:32.030Z,12.53
2023-05-08T22:43:35.795Z,12.50
2023-05-08T22:46:38.280Z,12.48
2023-05-08T22:49:41.279Z,12.46
2023-05-08T22:52:42.951Z,12.43
2023-05-08T22:55:44.753Z,12.43
2023-05-08T22:58:47.807Z,12.40
2023-05-08T23:01:49.587Z,12.36
2023-05-08T23:04:51.650Z,12.37
2023-05-08T23:07:53.588Z,12.38
2023-05-08T23:10:55.131Z,12.38
2023-05-08T23:13:58.347Z,12.32
2023-05-08T23:17:00.608Z,12.29
2023-05-08T23:20:02.584Z,12.29
2023-05-08T23:23:04.193Z,12.21
2023-05-08T23:26:06.278Z,12.30
2023-05-08T23:29:09.466Z,12.28
2023-05-08T23:32:11.005Z,12.25
2023-05-08T23:35:13.078Z,12.19
2023-05-08T23:38:14.917Z,12.16
2023-05-08T23:41:17.432Z,12.09
2023-05-08T23:44:20.839Z,12.07
2023-05-08T23:47:22.596Z,12.07
2023-05-08T23:50:24.148Z,12.10
2023-05-08T23:53:25.864Z,12.14
2023-05-08T23:56:27.620Z,12.10
2023-05-08T23:59:30.657Z,12.07
